Terminal Aerodrome Forecast
Issued by NWS

Home | Current Version | Previous Version | Text Only | Print | Product List | Glossary On
Versions: 1 2 3 4 5 6 7 8 9 10 11 12 13
331
FTUS46 KSEW 030530
TAFBFI
TAF
KBFI 030530Z 0306/0406 13007KT P6SM SCT130
     FM031200 16003KT P6SM SCT130 BKN250
     FM032000 23006KT P6SM SCT130 BKN250
     FM040200 23008KT P6SM VCSH BKN050 OVC110=

USA.gov is the U.S. government's official web portal to all federal, state and local government web resources and services.